createdAt,value
2023-02-11T00:00:52.121Z,17.00
2023-02-11T00:01:54.376Z,16.35
2023-02-11T00:02:56.296Z,15.48
2023-02-11T00:03:59.222Z,15.10
2023-02-11T00:05:02.749Z,17.10
2023-02-11T00:06:11.211Z,16.10
2023-02-11T00:07:13.005Z,15.85
2023-02-11T00:08:17.210Z,17.75
2023-02-11T00:10:20.853Z,13.43
2023-02-11T00:11:30.712Z,15.88
2023-02-11T00:12:32.732Z,11.95
2023-02-11T00:13:34.593Z,17.00
2023-02-11T00:14:36.400Z,16.45
2023-02-11T00:15:38.485Z,15.20
2023-02-11T00:16:40.616Z,14.75
2023-02-11T00:17:42.468Z,14.57
2023-02-11T00:18:44.632Z,16.13
2023-02-11T00:19:50.454Z,15.90
2023-02-11T00:20:52.382Z,14.00
2023-02-11T00:21:54.292Z,14.65
2023-02-11T00:22:56.115Z,15.10
2023-02-11T00:24:00.002Z,14.65
2023-02-11T00:25:02.236Z,14.73
2023-02-11T00:26:11.860Z,17.17
2023-02-11T00:27:13.719Z,12.55
2023-02-11T00:28:15.606Z,18.38
2023-02-11T00:29:17.596Z,16.67
2023-02-11T00:30:19.758Z,16.10
2023-02-11T00:31:23.404Z,15.10
2023-02-11T00:32:25.330Z,18.17
2023-02-11T00:33:27.280Z,15.52
2023-02-11T00:34:29.052Z,15.60
2023-02-11T00:35:30.927Z,15.95
2023-02-11T00:36:32.979Z,15.90
2023-02-11T00:37:36.591Z,17.70
2023-02-11T00:38:38.522Z,17.88
2023-02-11T00:39:40.363Z,14.90
2023-02-11T00:40:42.281Z,14.52
2023-02-11T00:41:44.124Z,15.02
2023-02-11T00:42:46.090Z,16.80
2023-02-11T00:43:48.052Z,19.35
2023-02-11T00:44:49.915Z,15.63
2023-02-11T00:45:52.140Z,18.40
2023-02-11T00:46:54.158Z,13.38
2023-02-11T00:47:56.203Z,15.07
2023-02-11T00:48:58.541Z,15.35
2023-02-11T00:50:01.064Z,16.77
2023-02-11T00:51:05.019Z,13.20
2023-02-11T00:52:07.296Z,14.05
2023-02-11T00:53:09.135Z,17.20
2023-02-11T00:54:11.095Z,17.35
2023-02-11T00:55:12.957Z,17.52
2023-02-11T00:56:14.823Z,16.13
2023-02-11T00:57:16.610Z,19.75
2023-02-11T00:58:18.424Z,15.05
2023-02-11T00:59:20.381Z,15.77
2023-02-11T01:00:22.377Z,17.10
2023-02-11T01:01:24.498Z,16.15
2023-02-11T01:02:26.442Z,14.48
2023-02-11T01:03:28.474Z,17.95
2023-02-11T01:04:30.706Z,18.10
2023-02-11T01:05:32.820Z,16.15
2023-02-11T01:06:34.706Z,14.10
2023-02-11T01:07:36.602Z,15.00
2023-02-11T01:08:39.117Z,14.23
2023-02-11T01:09:41.047Z,15.65
2023-02-11T01:10:44.087Z,17.33
2023-02-11T01:11:45.923Z,15.27
2023-02-11T01:12:48.040Z,15.38
2023-02-11T01:13:51.032Z,14.52
2023-02-11T01:14:53.021Z,14.82
2023-02-11T01:15:55.872Z,16.67
2023-02-11T01:16:58.026Z,16.65
2023-02-11T01:17:59.890Z,15.27
2023-02-11T01:19:01.984Z,15.32
2023-02-11T01:20:06.172Z,15.05
2023-02-11T01:21:08.131Z,15.70
2023-02-11T01:22:10.002Z,18.55
2023-02-11T01:23:11.922Z,16.48
2023-02-11T01:24:13.921Z,13.82
2023-02-11T01:25:16.172Z,16.73
2023-02-11T01:26:19.656Z,16.58
2023-02-11T01:27:21.596Z,13.57
2023-02-11T01:28:26.448Z,13.20
2023-02-11T01:29:28.360Z,16.88
2023-02-11T01:30:30.404Z,16.65
2023-02-11T01:31:32.800Z,17.50
2023-02-11T01:32:35.294Z,19.10
2023-02-11T01:33:37.112Z,16.08
2023-02-11T01:34:38.974Z,15.77
2023-02-11T01:35:41.030Z,18.88
2023-02-11T01:36:42.951Z,20.08
2023-02-11T01:37:45.360Z,14.15
2023-02-11T01:38:47.369Z,16.40
2023-02-11T01:39:49.270Z,20.30
2023-02-11T01:40:57.241Z,17.08
2023-02-11T01:41:59.240Z,15.10
2023-02-11T01:43:01.182Z,19.23
2023-02-11T01:44:26.976Z,15.98
2023-02-11T01:45:50.013Z,17.13
2023-02-11T01:47:53.900Z,9.48
2023-02-11T01:49:18.443Z,14.15
2023-02-11T01:50:20.323Z,12.55
2023-02-11T01:51:33.489Z,19.75
2023-02-11T01:52:39.159Z,11.68
2023-02-11T01:54:00.722Z,18.15
2023-02-11T01:55:25.209Z,15.75
2023-02-11T01:56:47.823Z,16.42
2023-02-11T01:57:56.427Z,12.30
2023-02-11T01:59:06.077Z,18.02
2023-02-11T02:00:16.450Z,22.02
2023-02-11T02:01:24.742Z,16.88
2023-02-11T02:03:11.596Z,16.15
2023-02-11T02:04:19.051Z,20.50
2023-02-11T02:05:31.163Z,18.10
2023-02-11T02:06:50.872Z,15.68
2023-02-11T02:08:00.511Z,16.73
2023-02-11T02:09:09.597Z,17.50
2023-02-11T02:10:17.977Z,11.90
2023-02-11T02:11:19.986Z,19.17
2023-02-11T02:12:21.969Z,14.77
2023-02-11T02:13:24.748Z,18.58
2023-02-11T02:14:26.967Z,14.48
2023-02-11T02:15:34.580Z,15.15
2023-02-11T02:16:37.710Z,15.85
2023-02-11T02:17:46.951Z,13.90
2023-02-11T02:18:51.666Z,15.80
2023-02-11T02:20:30.848Z,17.75
2023-02-11T02:21:54.680Z,16.63
2023-02-11T02:23:18.096Z,17.63
2023-02-11T02:24:46.641Z,16.13
2023-02-11T02:26:00.691Z,13.68
2023-02-11T02:27:02.724Z,15.20
2023-02-11T02:28:16.591Z,18.15
2023-02-11T02:29:36.807Z,15.95
2023-02-11T02:30:54.835Z,21.20
2023-02-11T02:32:30.201Z,14.35
2023-02-11T02:33:41.836Z,16.50
2023-02-11T02:34:56.566Z,15.77
2023-02-11T02:36:24.026Z,19.75
2023-02-11T02:37:56.615Z,15.95
2023-02-11T02:39:07.932Z,14.27
2023-02-11T02:40:17.028Z,15.70
2023-02-11T02:41:23.362Z,20.27
2023-02-11T02:42:26.090Z,14.45
2023-02-11T02:43:29.347Z,15.00
2023-02-11T02:44:32.208Z,19.95
2023-02-11T02:45:34.261Z,15.52
2023-02-11T02:46:36.748Z,15.73
2023-02-11T02:47:38.613Z,18.85
2023-02-11T02:48:40.455Z,18.05
2023-02-11T02:49:42.305Z,16.77
2023-02-11T02:50:44.752Z,19.15
2023-02-11T02:52:07.662Z,21.85
2023-02-11T02:53:35.994Z,17.83
2023-02-11T02:54:40.769Z,20.15
2023-02-11T02:55:45.630Z,18.73
2023-02-11T02:56:58.136Z,19.40
2023-02-11T02:58:02.905Z,19.75
2023-02-11T02:59:40.100Z,15.45
2023-02-11T03:00:51.762Z,19.00
2023-02-11T03:02:08.611Z,19.58
2023-02-11T03:04:53.040Z,17.05
2023-02-11T03:07:29.805Z,13.77
2023-02-11T03:08:36.823Z,15.73
2023-02-11T03:10:17.222Z,16.33
2023-02-11T03:11:21.779Z,14.40
2023-02-11T03:12:27.929Z,16.67
2023-02-11T03:13:34.853Z,20.63
2023-02-11T03:14:37.834Z,17.92
2023-02-11T03:15:44.480Z,20.95
2023-02-11T03:16:49.422Z,17.35
2023-02-11T03:17:53.897Z,17.02
2023-02-11T03:19:20.677Z,15.27
2023-02-11T03:20:23.410Z,16.25
2023-02-11T03:21:26.200Z,14.25
2023-02-11T03:22:38.968Z,18.67
2023-02-11T03:24:05.318Z,17.83
2023-02-11T03:25:07.811Z,19.15
2023-02-11T03:26:23.457Z,18.88
2023-02-11T03:27:46.368Z,17.90
2023-02-11T03:29:09.636Z,22.13
2023-02-11T03:31:26.543Z,14.95
2023-02-11T03:32:41.533Z,15.65
2023-02-11T03:33:50.735Z,15.73
2023-02-11T03:34:52.642Z,19.33
2023-02-11T03:35:59.381Z,18.40
2023-02-11T03:37:08.119Z,19.48
2023-02-11T03:38:16.307Z,17.33
2023-02-11T03:39:25.563Z,16.73
2023-02-11T03:40:32.667Z,23.83
2023-02-11T03:41:36.035Z,20.02
2023-02-11T03:43:07.611Z,17.55
2023-02-11T03:44:12.886Z,15.15
2023-02-11T03:45:19.684Z,23.02
2023-02-11T03:46:32.575Z,18.05
2023-02-11T03:47:37.242Z,19.15
2023-02-11T03:48:47.162Z,23.38
2023-02-11T03:49:51.657Z,16.80
2023-02-11T03:50:55.733Z,17.63
2023-02-11T03:51:59.015Z,18.13
2023-02-11T03:53:02.936Z,20.17
2023-02-11T03:54:10.765Z,16.92
2023-02-11T03:55:17.667Z,20.00
2023-02-11T03:56:24.602Z,18.33
2023-02-11T03:57:26.607Z,19.30
2023-02-11T03:58:28.606Z,18.27
2023-02-11T03:59:30.463Z,16.92
2023-02-11T04:00:37.477Z,28.15
2023-02-11T04:01:39.319Z,19.27
2023-02-11T04:02:41.856Z,22.55
2023-02-11T04:03:43.646Z,18.98
2023-02-11T04:04:46.269Z,19.65
2023-02-11T04:05:48.697Z,16.40
2023-02-11T04:06:50.911Z,17.63
2023-02-11T04:07:52.747Z,20.65
2023-02-11T04:08:54.847Z,18.90
2023-02-11T04:09:56.634Z,18.27
2023-02-11T04:10:58.802Z,21.30
2023-02-11T04:12:00.584Z,22.98
2023-02-11T04:13:02.455Z,16.70
2023-02-11T04:14:04.804Z,18.40
2023-02-11T04:15:07.576Z,15.60
2023-02-11T04:16:09.670Z,20.08
2023-02-11T04:17:12.793Z,18.15
2023-02-11T04:18:14.752Z,16.05
2023-02-11T04:19:16.585Z,18.00
2023-02-11T04:20:18.488Z,15.90
2023-02-11T04:21:20.414Z,19.95
2023-02-11T04:22:22.296Z,18.63
2023-02-11T04:23:24.118Z,20.98
2023-02-11T04:24:25.981Z,21.48
2023-02-11T04:25:27.814Z,20.13
2023-02-11T04:26:29.722Z,17.58
2023-02-11T04:27:32.153Z,18.52
2023-02-11T04:28:35.239Z,20.00
2023-02-11T04:29:37.066Z,17.60
2023-02-11T04:30:39.294Z,21.80
2023-02-11T04:31:41.302Z,18.98
2023-02-11T04:32:43.207Z,17.17
2023-02-11T04:33:45.065Z,18.65
2023-02-11T04:34:46.869Z,15.93
2023-02-11T04:35:49.378Z,20.58
2023-02-11T04:36:51.494Z,20.70
2023-02-11T04:37:53.303Z,19.48
2023-02-11T04:38:55.278Z,22.20
2023-02-11T04:39:57.070Z,18.92
2023-02-11T04:41:00.600Z,19.95
2023-02-11T04:42:02.587Z,16.38
2023-02-11T04:43:04.593Z,19.60
2023-02-11T04:44:06.623Z,21.15
2023-02-11T04:45:08.942Z,23.80
2023-02-11T04:46:11.164Z,19.58
2023-02-11T04:47:15.448Z,23.17
2023-02-11T04:48:17.311Z,19.40
2023-02-11T04:49:19.449Z,16.15
2023-02-11T04:50:21.487Z,19.52
2023-02-11T04:51:24.209Z,18.33
2023-02-11T04:52:26.256Z,19.65
2023-02-11T04:53:28.206Z,18.88
2023-02-11T04:54:30.066Z,13.15
2023-02-11T04:55:31.923Z,17.08
2023-02-11T04:56:33.863Z,24.92
2023-02-11T04:57:35.817Z,21.00
2023-02-11T04:58:37.697Z,19.52
2023-02-11T04:59:40.820Z,20.27
2023-02-11T05:00:42.684Z,23.00
2023-02-11T05:01:44.597Z,21.25
2023-02-11T05:02:46.819Z,23.65
2023-02-11T05:03:49.354Z,20.45
2023-02-11T05:04:51.326Z,20.65
2023-02-11T05:05:53.554Z,21.13
2023-02-11T05:06:58.302Z,19.75
2023-02-11T05:08:00.577Z,19.90
2023-02-11T05:09:02.437Z,19.42
2023-02-11T05:10:05.156Z,18.48
2023-02-11T05:11:08.442Z,16.52
2023-02-11T05:12:10.329Z,21.52
2023-02-11T05:13:12.187Z,17.42
2023-02-11T05:14:14.157Z,20.70
2023-02-11T05:15:16.295Z,19.17
2023-02-11T05:16:18.843Z,20.13
2023-02-11T05:17:20.745Z,20.02
2023-02-11T05:18:22.739Z,20.42
2023-02-11T05:19:24.719Z,18.30
2023-02-11T05:20:26.556Z,19.08
2023-02-11T05:21:28.500Z,15.52
2023-02-11T05:22:30.653Z,18.95
2023-02-11T05:23:32.550Z,21.05
2023-02-11T05:24:35.196Z,19.70
2023-02-11T05:25:37.778Z,19.52
2023-02-11T05:26:39.801Z,21.08
2023-02-11T05:27:42.008Z,19.20
2023-02-11T05:28:45.148Z,15.30
2023-02-11T05:29:46.943Z,21.48
2023-02-11T05:30:49.003Z,24.73
2023-02-11T05:31:50.796Z,18.90
2023-02-11T05:32:52.701Z,20.02
2023-02-11T05:33:54.623Z,22.95
2023-02-11T05:34:56.528Z,18.63
2023-02-11T05:36:00.548Z,19.83
2023-02-11T05:37:02.485Z,18.20
2023-02-11T05:38:04.350Z,21.02
2023-02-11T05:39:06.332Z,16.73
2023-02-11T05:40:08.613Z,21.52
2023-02-11T05:41:12.064Z,18.60
2023-02-11T05:42:14.467Z,14.95
2023-02-11T05:43:16.270Z,20.33
2023-02-11T05:44:18.219Z,24.02
2023-02-11T05:45:20.341Z,19.52
2023-02-11T05:46:22.194Z,19.73
2023-02-11T05:47:24.457Z,19.20
2023-02-11T05:48:26.497Z,17.08
2023-02-11T05:49:28.401Z,20.73
2023-02-11T05:50:30.333Z,20.90
2023-02-11T05:51:32.372Z,19.38
2023-02-11T05:52:34.307Z,19.95
2023-02-11T05:53:36.504Z,21.90
2023-02-11T05:54:38.388Z,17.65
2023-02-11T05:55:40.264Z,20.70
2023-02-11T05:56:44.646Z,22.63
2023-02-11T05:57:46.759Z,21.20
2023-02-11T05:58:48.589Z,22.80
2023-02-11T05:59:50.406Z,18.98
2023-02-11T06:00:52.339Z,24.58
2023-02-11T06:01:54.294Z,22.20
2023-02-11T06:02:56.239Z,17.45
2023-02-11T06:03:58.461Z,21.83
2023-02-11T06:05:00.484Z,21.35
2023-02-11T06:06:02.372Z,19.98
2023-02-11T06:07:04.444Z,20.30
2023-02-11T06:08:06.362Z,23.02
2023-02-11T06:09:10.387Z,23.27
2023-02-11T06:10:12.867Z,22.42
2023-02-11T06:11:16.143Z,26.38
2023-02-11T06:12:18.100Z,21.92
2023-02-11T06:13:19.941Z,21.52
2023-02-11T06:14:22.005Z,26.55
2023-02-11T06:15:23.935Z,23.77
2023-02-11T06:16:25.998Z,23.90
2023-02-11T06:17:31.826Z,25.13
2023-02-11T06:18:36.385Z,21.83
2023-02-11T06:19:38.350Z,21.38
2023-02-11T06:20:41.667Z,24.75
2023-02-11T06:21:44.605Z,24.65
2023-02-11T06:22:46.852Z,21.25
2023-02-11T06:23:49.323Z,21.67
2023-02-11T06:25:01.241Z,23.20
2023-02-11T06:26:07.466Z,23.67
2023-02-11T06:27:09.705Z,23.50
2023-02-11T06:28:11.718Z,21.65
2023-02-11T06:29:14.139Z,22.75
2023-02-11T06:30:16.131Z,27.35
2023-02-11T06:31:19.384Z,23.10
2023-02-11T06:32:42.337Z,19.02
2023-02-11T06:33:44.147Z,24.02
2023-02-11T06:34:46.389Z,19.65
2023-02-11T06:35:48.454Z,23.75
2023-02-11T06:36:50.415Z,22.75
2023-02-11T06:37:54.102Z,19.38
2023-02-11T06:38:56.242Z,21.70
2023-02-11T06:39:58.266Z,24.08
2023-02-11T06:41:00.175Z,23.17
2023-02-11T06:42:02.150Z,21.30
2023-02-11T06:43:04.192Z,19.90
2023-02-11T06:44:06.617Z,21.30
2023-02-11T06:45:11.119Z,23.27
2023-02-11T06:46:13.822Z,21.08
2023-02-11T06:47:15.700Z,26.30
2023-02-11T06:48:17.755Z,18.00
2023-02-11T06:49:19.965Z,24.98
2023-02-11T06:50:21.942Z,23.60
2023-02-11T06:51:23.998Z,21.40
2023-02-11T06:52:26.193Z,24.15
2023-02-11T06:53:28.356Z,23.40
2023-02-11T06:54:30.295Z,28.00
2023-02-11T06:55:32.256Z,23.73
2023-02-11T06:56:35.127Z,25.35
2023-02-11T06:57:37.117Z,24.00
2023-02-11T06:58:39.590Z,26.85
2023-02-11T06:59:41.886Z,25.33
2023-02-11T07:00:43.891Z,22.98
2023-02-11T07:01:45.772Z,26.90
2023-02-11T07:02:47.690Z,25.00
2023-02-11T07:03:50.449Z,22.77
2023-02-11T07:04:52.418Z,24.23
2023-02-11T07:05:54.283Z,26.83
2023-02-11T07:06:58.496Z,22.30
2023-02-11T07:08:00.488Z,26.08
2023-02-11T07:09:02.460Z,22.13
2023-02-11T07:10:06.010Z,27.70
2023-02-11T07:11:24.374Z,28.10
2023-02-11T07:12:26.435Z,23.77
2023-02-11T07:13:28.317Z,28.83
2023-02-11T07:14:30.227Z,25.23
2023-02-11T07:15:32.128Z,27.85
2023-02-11T07:16:35.377Z,23.45
2023-02-11T07:17:37.478Z,25.58
2023-02-11T07:18:39.869Z,25.85
2023-02-11T07:19:41.742Z,25.55
2023-02-11T07:20:43.773Z,27.48
2023-02-11T07:21:45.707Z,28.02
2023-02-11T07:22:47.671Z,25.10
2023-02-11T07:23:49.566Z,25.67
2023-02-11T07:24:51.411Z,22.45
2023-02-11T07:25:53.532Z,26.80
2023-02-11T07:26:55.415Z,24.50
2023-02-11T07:27:57.515Z,23.73
2023-02-11T07:28:59.425Z,27.15
2023-02-11T07:30:01.613Z,26.63
2023-02-11T07:31:11.738Z,25.10
2023-02-11T07:32:14.675Z,28.73
2023-02-11T07:33:16.610Z,27.25
2023-02-11T07:34:18.513Z,26.17
2023-02-11T07:35:20.439Z,26.63
2023-02-11T07:36:23.100Z,28.58
2023-02-11T07:37:25.143Z,27.50
2023-02-11T07:38:27.382Z,25.45
2023-02-11T07:39:29.615Z,28.42
2023-02-11T07:40:31.779Z,25.40
2023-02-11T07:41:37.797Z,26.35
2023-02-11T07:42:41.842Z,26.27
2023-02-11T07:43:45.064Z,25.63
2023-02-11T07:44:49.311Z,24.33
2023-02-11T07:45:52.390Z,23.17
2023-02-11T07:46:54.454Z,30.38
2023-02-11T07:47:56.695Z,27.42
2023-02-11T07:48:58.861Z,30.15
2023-02-11T07:50:00.703Z,30.38
2023-02-11T07:51:11.800Z,30.77
2023-02-11T07:52:13.705Z,27.48
2023-02-11T07:53:16.270Z,27.00
2023-02-11T07:54:18.405Z,25.27
2023-02-11T07:55:20.243Z,28.35
2023-02-11T07:56:22.654Z,28.85
2023-02-11T07:57:24.745Z,26.73
2023-02-11T07:58:26.507Z,26.73
2023-02-11T07:59:28.322Z,29.88
2023-02-11T08:00:30.269Z,25.88
2023-02-11T08:01:32.309Z,27.27
2023-02-11T08:02:34.287Z,23.15
2023-02-11T08:03:37.215Z,25.05
2023-02-11T08:04:39.177Z,25.98
2023-02-11T08:05:41.103Z,29.77
2023-02-11T08:06:44.153Z,29.02
2023-02-11T08:07:46.028Z,24.25
2023-02-11T08:08:48.595Z,29.25
2023-02-11T08:09:50.537Z,25.67
2023-02-11T08:10:52.515Z,27.42
2023-02-11T08:11:54.778Z,25.08
2023-02-11T08:12:56.712Z,22.98
2023-02-11T08:13:58.865Z,28.13
2023-02-11T08:15:00.725Z,19.85
2023-02-11T08:16:03.342Z,24.85
2023-02-11T08:17:05.487Z,27.90
2023-02-11T08:18:08.744Z,24.20
2023-02-11T08:19:13.216Z,23.92
2023-02-11T08:20:15.690Z,23.27
2023-02-11T08:21:17.977Z,25.58
2023-02-11T08:22:19.808Z,32.35
2023-02-11T08:23:21.805Z,25.95
2023-02-11T08:24:24.181Z,24.63
2023-02-11T08:25:26.278Z,25.80
2023-02-11T08:26:30.252Z,23.88
2023-02-11T08:27:32.180Z,29.55
2023-02-11T08:28:41.652Z,26.63
2023-02-11T08:29:43.812Z,23.77
2023-02-11T08:30:45.693Z,24.45
2023-02-11T08:31:48.136Z,29.17
2023-02-11T08:32:50.236Z,26.17
2023-02-11T08:33:54.350Z,28.00
2023-02-11T08:34:56.413Z,27.75
2023-02-11T08:35:58.538Z,23.58
2023-02-11T08:37:00.548Z,26.55
2023-02-11T08:38:02.318Z,25.63
2023-02-11T08:39:22.690Z,27.40
2023-02-11T08:40:25.545Z,21.60
2023-02-11T08:41:27.379Z,24.48
2023-02-11T08:42:29.270Z,28.55
2023-02-11T08:43:31.878Z,27.05
2023-02-11T08:44:33.652Z,23.00
2023-02-11T08:45:35.645Z,29.15
2023-02-11T08:46:37.717Z,29.30
2023-02-11T08:47:40.105Z,24.63
2023-02-11T08:48:42.106Z,22.42
2023-02-11T08:49:44.082Z,23.40
2023-02-11T08:50:46.013Z,23.02
2023-02-11T08:51:48.836Z,24.65
2023-02-11T08:52:52.587Z,23.23
2023-02-11T08:53:55.545Z,24.42
2023-02-11T08:54:57.512Z,27.20
2023-02-11T08:55:59.498Z,26.27
2023-02-11T08:57:02.095Z,28.05
2023-02-11T08:58:04.087Z,26.35
2023-02-11T08:59:07.489Z,25.15
2023-02-11T09:00:11.229Z,24.10
2023-02-11T09:01:15.601Z,25.45
2023-02-11T09:02:17.791Z,24.33
2023-02-11T09:03:19.796Z,28.80
2023-02-11T09:04:21.628Z,23.67
2023-02-11T09:05:23.520Z,24.75
2023-02-11T09:06:26.966Z,29.52
2023-02-11T09:07:29.145Z,26.17
2023-02-11T09:08:30.966Z,27.77
2023-02-11T09:09:33.231Z,23.15
2023-02-11T09:10:35.354Z,26.13
2023-02-11T09:11:37.555Z,25.98
2023-02-11T09:12:39.731Z,25.95
2023-02-11T09:13:43.325Z,19.52
2023-02-11T09:14:45.154Z,24.38
2023-02-11T09:15:47.119Z,34.20
2023-02-11T09:16:49.995Z,26.50
2023-02-11T09:17:52.068Z,28.08
2023-02-11T09:18:56.496Z,27.05
2023-02-11T09:19:58.392Z,24.10
2023-02-11T09:21:09.183Z,28.73
2023-02-11T09:22:11.147Z,27.25
2023-02-11T09:23:13.046Z,24.65
2023-02-11T09:24:15.356Z,25.20
2023-02-11T09:25:17.270Z,22.58
2023-02-11T09:26:24.294Z,23.65
2023-02-11T09:27:26.284Z,24.20
2023-02-11T09:28:28.251Z,24.83
2023-02-11T09:29:30.151Z,36.40
2023-02-11T09:30:32.122Z,25.00
2023-02-11T09:31:35.127Z,21.23
2023-02-11T09:32:37.039Z,27.60
2023-02-11T09:33:42.226Z,22.70
2023-02-11T09:34:44.016Z,25.15
2023-02-11T09:35:45.946Z,25.90
2023-02-11T09:36:47.760Z,25.17
2023-02-11T09:37:51.235Z,25.77
2023-02-11T09:38:54.955Z,27.83
2023-02-11T09:39:56.895Z,25.13
2023-02-11T09:40:58.857Z,23.92
2023-02-11T09:42:35.127Z,26.73
2023-02-11T09:43:46.780Z,22.70
2023-02-11T09:44:49.300Z,22.55
2023-02-11T09:45:55.059Z,23.17
2023-02-11T09:47:21.488Z,24.65
2023-02-11T09:48:24.009Z,23.75
2023-02-11T09:49:39.247Z,24.05
2023-02-11T09:50:44.557Z,23.00
2023-02-11T09:51:58.149Z,29.50
2023-02-11T09:53:05.787Z,20.35
2023-02-11T09:54:22.126Z,27.63
2023-02-11T09:55:39.844Z,22.83
2023-02-11T09:56:41.755Z,25.17
2023-02-11T09:57:43.671Z,22.90
2023-02-11T09:58:45.738Z,24.73
2023-02-11T09:59:49.497Z,27.60
2023-02-11T10:01:08.829Z,25.08
2023-02-11T10:02:31.189Z,27.08
2023-02-11T10:03:50.591Z,21.85
2023-02-11T10:05:20.569Z,23.83
2023-02-11T10:06:39.314Z,23.63
2023-02-11T10:08:05.745Z,20.15
2023-02-11T10:09:19.947Z,22.08
2023-02-11T10:10:40.156Z,23.98
2023-02-11T10:12:06.435Z,23.65
2023-02-11T10:13:43.767Z,21.42
2023-02-11T10:15:04.143Z,23.15
2023-02-11T10:16:44.300Z,17.85
2023-02-11T10:17:52.183Z,18.85
2023-02-11T10:18:56.846Z,25.92
2023-02-11T10:20:30.371Z,25.60
2023-02-11T10:22:15.296Z,18.73
2023-02-11T10:23:22.707Z,22.45
2023-02-11T10:24:25.708Z,17.40
2023-02-11T10:25:34.760Z,19.65
2023-02-11T10:26:38.669Z,20.08
2023-02-11T10:27:40.473Z,25.40
2023-02-11T10:28:46.418Z,21.83
2023-02-11T10:30:02.772Z,18.63
2023-02-11T10:31:19.834Z,21.33
2023-02-11T10:32:32.527Z,17.63
2023-02-11T10:33:51.333Z,20.75
2023-02-11T10:34:59.120Z,22.38
2023-02-11T10:36:01.157Z,27.38
2023-02-11T10:37:03.953Z,19.45
2023-02-11T10:38:06.040Z,18.67
2023-02-11T10:39:10.895Z,22.75
2023-02-11T10:40:25.590Z,20.58
2023-02-11T10:41:33.890Z,22.35
2023-02-11T10:42:36.537Z,24.25
2023-02-11T10:43:38.658Z,19.25
2023-02-11T10:44:49.745Z,21.10
2023-02-11T10:45:53.816Z,21.65
2023-02-11T10:46:57.730Z,21.50
2023-02-11T10:48:01.706Z,18.05
2023-02-11T10:49:04.029Z,17.75
2023-02-11T10:50:38.647Z,21.92
2023-02-11T10:51:40.585Z,18.67
2023-02-11T10:52:42.459Z,20.08
2023-02-11T10:53:46.119Z,21.15
2023-02-11T10:54:58.418Z,19.00
2023-02-11T10:56:00.336Z,22.08
2023-02-11T10:57:02.352Z,22.98
2023-02-11T10:58:04.897Z,21.15
2023-02-11T10:59:28.406Z,20.05
2023-02-11T11:00:36.941Z,19.38
2023-02-11T11:01:54.144Z,22.33
2023-02-11T11:02:59.074Z,20.48
2023-02-11T11:04:00.965Z,20.15
2023-02-11T11:05:30.653Z,21.38
2023-02-11T11:06:33.978Z,20.85
2023-02-11T11:07:37.253Z,16.95
2023-02-11T11:08:44.815Z,19.63
2023-02-11T11:10:02.753Z,20.30
2023-02-11T11:11:08.712Z,23.05
2023-02-11T11:12:29.258Z,22.75
2023-02-11T11:13:40.524Z,19.85
2023-02-11T11:14:54.740Z,24.17
2023-02-11T11:16:15.010Z,21.52
2023-02-11T11:17:18.990Z,19.40
2023-02-11T11:18:23.224Z,23.15
2023-02-11T11:19:26.097Z,23.65
2023-02-11T11:20:35.466Z,20.73
2023-02-11T11:21:45.138Z,18.05
2023-02-11T11:22:49.273Z,20.40
2023-02-11T11:24:00.009Z,24.25
2023-02-11T11:25:01.960Z,24.55
2023-02-11T11:26:10.743Z,21.65
2023-02-11T11:27:22.171Z,20.30
2023-02-11T11:28:26.779Z,21.30
2023-02-11T11:29:46.262Z,19.88
2023-02-11T11:30:48.517Z,20.55
2023-02-11T11:32:04.734Z,22.98
2023-02-11T11:33:21.023Z,26.10
2023-02-11T11:34:31.867Z,26.40
2023-02-11T11:35:33.859Z,22.02
2023-02-11T11:36:39.198Z,17.90
2023-02-11T11:37:42.426Z,22.25
2023-02-11T11:38:49.473Z,17.83
2023-02-11T11:40:00.702Z,23.15
2023-02-11T11:41:20.949Z,23.02
2023-02-11T11:42:34.023Z,23.00
2023-02-11T11:43:37.754Z,23.13
2023-02-11T11:44:42.484Z,22.00
2023-02-11T11:46:01.218Z,18.77
2023-02-11T11:47:12.326Z,19.20
2023-02-11T11:48:22.965Z,22.50
2023-02-11T11:49:36.854Z,21.52
2023-02-11T11:50:56.488Z,21.15
2023-02-11T11:52:18.361Z,19.90
2023-02-11T11:54:04.390Z,19.77
2023-02-11T11:55:17.910Z,20.02
2023-02-11T11:56:26.993Z,19.83
2023-02-11T11:57:30.899Z,21.80
2023-02-11T11:58:33.805Z,18.13
2023-02-11T11:59:37.291Z,20.20
2023-02-11T12:01:20.864Z,20.23
2023-02-11T12:02:25.744Z,22.02
2023-02-11T12:03:55.332Z,19.83
2023-02-11T12:06:13.776Z,27.55
2023-02-11T12:07:27.842Z,18.88
2023-02-11T12:08:41.441Z,20.73
2023-02-11T12:09:58.664Z,18.45
2023-02-11T12:11:17.028Z,22.38
2023-02-11T12:12:32.664Z,21.65
2023-02-11T12:14:09.718Z,22.70
2023-02-11T12:15:31.507Z,19.88
2023-02-11T12:16:54.659Z,27.33
2023-02-11T12:19:35.495Z,23.58
2023-02-11T12:20:40.244Z,16.67
2023-02-11T12:22:44.147Z,20.38
2023-02-11T12:23:49.106Z,23.95
2023-02-11T12:25:18.961Z,19.63
2023-02-11T12:26:24.189Z,21.58
2023-02-11T12:27:45.303Z,30.33
2023-02-11T12:29:14.515Z,18.75
2023-02-11T12:30:50.795Z,19.95
2023-02-11T12:32:04.843Z,22.73
2023-02-11T12:33:32.464Z,23.05
2023-02-11T12:35:06.891Z,25.42
2023-02-11T12:36:34.523Z,23.17
2023-02-11T12:38:16.296Z,21.48
2023-02-11T12:39:26.863Z,21.58
2023-02-11T12:42:13.809Z,20.33
2023-02-11T12:43:38.774Z,23.02
2023-02-11T12:44:46.619Z,20.98
2023-02-11T12:46:26.077Z,21.45
2023-02-11T12:47:51.229Z,22.30
2023-02-11T12:49:14.899Z,20.70
2023-02-11T12:50:35.080Z,25.90
2023-02-11T12:51:45.259Z,21.63
2023-02-11T12:53:04.436Z,19.50
2023-02-11T12:54:30.407Z,22.52
2023-02-11T12:55:37.396Z,18.52
2023-02-11T12:57:06.496Z,28.23
2023-02-11T12:58:17.232Z,22.90
2023-02-11T12:59:47.057Z,24.30
2023-02-11T13:00:55.102Z,21.70
2023-02-11T13:02:01.420Z,21.27
2023-02-11T13:03:19.321Z,22.83
2023-02-11T13:04:31.147Z,24.20
2023-02-11T13:05:45.615Z,24.08
2023-02-11T13:07:03.294Z,20.30
2023-02-11T13:08:14.288Z,21.80
2023-02-11T13:09:27.019Z,22.90
2023-02-11T13:10:37.117Z,26.33
2023-02-11T13:11:52.041Z,21.30
2023-02-11T13:13:14.788Z,24.27
2023-02-11T13:14:27.612Z,26.35
2023-02-11T13:15:30.883Z,25.23
2023-02-11T13:16:40.606Z,23.40
2023-02-11T13:18:05.660Z,23.95
2023-02-11T13:19:27.825Z,19.83
2023-02-11T13:20:53.975Z,22.10
2023-02-11T13:22:22.422Z,25.23
2023-02-11T13:23:31.664Z,23.50
2023-02-11T13:25:04.076Z,23.65
2023-02-11T13:26:21.278Z,23.73
2023-02-11T13:27:38.670Z,19.95
2023-02-11T13:28:47.704Z,23.27
2023-02-11T13:30:21.382Z,24.05
2023-02-11T13:31:27.231Z,22.98
2023-02-11T13:32:55.855Z,18.83
2023-02-11T13:33:57.948Z,18.45
2023-02-11T13:35:00.038Z,20.25
2023-02-11T13:36:04.454Z,22.63
2023-02-11T13:37:19.542Z,23.02
2023-02-11T13:38:23.232Z,22.80
2023-02-11T13:39:25.453Z,21.23
2023-02-11T13:40:34.649Z,21.67
2023-02-11T13:41:41.897Z,27.40
2023-02-11T13:43:04.712Z,21.23
2023-02-11T13:44:09.574Z,21.10
2023-02-11T13:45:29.484Z,25.50
2023-02-11T13:47:24.639Z,18.70
2023-02-11T13:48:54.853Z,17.55
2023-02-11T13:49:57.848Z,19.33
2023-02-11T13:51:07.237Z,22.85
2023-02-11T13:52:30.072Z,18.58
2023-02-11T13:53:50.402Z,20.40
2023-02-11T13:54:54.656Z,19.88
2023-02-11T13:57:26.237Z,19.85
2023-02-11T13:58:28.103Z,20.13
2023-02-11T13:59:33.094Z,18.33
2023-02-11T14:00:34.928Z,20.23
2023-02-11T14:02:11.408Z,18.95
2023-02-11T14:03:31.848Z,20.17
2023-02-11T14:04:52.954Z,15.65
2023-02-11T14:06:28.775Z,21.13
2023-02-11T14:09:11.612Z,24.73
2023-02-11T14:10:39.485Z,19.65
2023-02-11T14:11:41.845Z,18.40
2023-02-11T14:12:43.683Z,18.85
2023-02-11T14:13:48.654Z,18.42
2023-02-11T14:15:03.434Z,21.25
2023-02-11T14:16:13.774Z,20.13
2023-02-11T14:17:19.200Z,23.30
2023-02-11T14:18:42.622Z,16.73
2023-02-11T14:19:47.141Z,19.42
2023-02-11T14:20:50.625Z,20.63
2023-02-11T14:21:52.783Z,21.15
2023-02-11T14:22:54.654Z,18.48
2023-02-11T14:24:02.493Z,18.77
2023-02-11T14:25:16.165Z,21.35
2023-02-11T14:26:20.702Z,20.48
2023-02-11T14:27:31.280Z,20.92
2023-02-11T14:29:51.161Z,19.90
2023-02-11T14:31:10.347Z,17.10
2023-02-11T14:32:34.906Z,20.83
2023-02-11T14:34:05.859Z,18.30
2023-02-11T14:35:08.069Z,20.27
2023-02-11T14:36:18.671Z,16.80
2023-02-11T14:38:40.498Z,17.50
2023-02-11T14:39:56.325Z,20.27
2023-02-11T14:41:10.581Z,22.98
2023-02-11T14:42:26.747Z,22.67
2023-02-11T14:43:36.220Z,19.83
2023-02-11T14:44:38.061Z,19.83